Terminal Aerodrome Forecast
Issued by NWS Charleston, SC

Home | Current Version | Previous Version | Text Only | Print | Product List | Glossary On
Versions: 1 2 3 4 5 6 7 8 9 10 11 12 13 14 15 16 17 18 19 20 21 22
000
FTUS42 KCHS 021133
TAFCHS
TAF
KCHS 021133Z 0212/0312 21004KT P6SM SCT025 SCT100
      TEMPO 0212/0214 BKN030
     FM021800 15009KT P6SM SCT040 BKN150
     FM030000 VRB04KT P6SM SCT015 SCT250=

USA.gov is the U.S. government's official web portal to all federal, state and local government web resources and services.